Allentown, New York
Current Conditions -  °F | °C
As of 1:16 PM on Wednesday 26 Nov 2014 (Local Time) from KELZ Reporting Station
Light Snow Light Snow  
Wind Chill: 30°   Ceiling: 2300
Heat Index: 30°   Visibility: 2mi
Dew Point: 24°   Wind: 3mph
Humidity: 79%   Direction: 60°ENE
Pressure: 30.02"   Gusts: NA
Location:  42.08°N, 78.06°W
Report Text: KELZ 261816Z AUTO 06003KT 2SM -SN FEW009 OVC023 M01/M04 A3002 RMK AO2 P0000 T10111044
Loading
Personal Weather Stations






























Interactive Weather Map New forecast layout! Learn more

10-Day Weather Forecast

Advertisements
Track Severe Weather on mobile